createdAt,value
2019-02-24T00:00:40.488Z,47.53
2019-02-24T00:03:10.938Z,45.67
2019-02-24T00:05:41.405Z,51.43
2019-02-24T00:08:11.755Z,51.97
2019-02-24T00:10:42.183Z,45.50
2019-02-24T00:13:12.854Z,63.90
2019-02-24T00:15:43.248Z,57.07
2019-02-24T00:18:13.643Z,63.63
2019-02-24T00:20:44.031Z,49.60
2019-02-24T00:23:14.588Z,51.40
2019-02-24T00:25:45.001Z,48.43
2019-02-24T00:28:15.527Z,51.83
2019-02-24T00:30:47.792Z,50.13
2019-02-24T00:33:18.144Z,51.03
2019-02-24T00:35:48.583Z,49.40
2019-02-24T00:38:20.757Z,56.93
2019-02-24T00:40:52.386Z,49.77
2019-02-24T00:43:22.962Z,50.00
2019-02-24T00:45:53.395Z,59.63
2019-02-24T00:48:23.779Z,51.83
2019-02-24T00:50:54.147Z,51.67
2019-02-24T00:53:24.511Z,57.83
2019-02-24T00:55:54.936Z,52.17
2019-02-24T00:58:25.604Z,46.40
2019-02-24T01:00:55.986Z,52.13
2019-02-24T01:03:26.458Z,53.40
2019-02-24T01:05:56.810Z,44.93
2019-02-24T01:08:29.116Z,47.00
2019-02-24T01:10:59.860Z,50.43
2019-02-24T01:13:30.670Z,51.70
2019-02-24T01:16:00.976Z,50.10
2019-02-24T01:18:31.371Z,44.37
2019-02-24T01:21:01.791Z,54.03
2019-02-24T01:23:32.350Z,47.27
2019-02-24T01:26:02.781Z,45.30
2019-02-24T01:28:33.144Z,43.10
2019-02-24T01:31:03.564Z,44.63
2019-02-24T01:33:33.979Z,57.83
2019-02-24T01:36:04.350Z,48.03
2019-02-24T01:38:34.783Z,42.30
2019-02-24T01:41:05.166Z,51.20
2019-02-24T01:43:35.634Z,41.37
2019-02-24T01:46:06.066Z,47.63
2019-02-24T01:48:36.457Z,44.67
2019-02-24T01:51:06.846Z,41.50
2019-02-24T01:53:37.344Z,53.43
2019-02-24T01:56:08.033Z,46.13
2019-02-24T01:58:38.780Z,52.50
2019-02-24T02:01:09.202Z,60.03
2019-02-24T02:03:39.806Z,54.00
2019-02-24T02:06:10.237Z,60.80
2019-02-24T02:08:41.805Z,52.50
2019-02-24T02:11:12.162Z,57.97
2019-02-24T02:13:42.578Z,46.77
2019-02-24T02:16:12.973Z,46.10
2019-02-24T02:18:43.434Z,56.53
2019-02-24T02:21:13.826Z,52.43
2019-02-24T02:23:45.235Z,47.53
2019-02-24T02:26:15.656Z,51.90
2019-02-24T02:28:46.117Z,50.37
2019-02-24T02:31:16.547Z,52.80
2019-02-24T02:33:47.257Z,52.97
2019-02-24T02:36:17.720Z,55.73
2019-02-24T02:38:48.123Z,50.40
2019-02-24T02:41:18.629Z,61.60
2019-02-24T02:43:49.058Z,62.50
2019-02-24T02:46:19.444Z,58.03
2019-02-24T02:48:49.846Z,58.77
2019-02-24T02:51:20.448Z,54.30
2019-02-24T02:53:51.290Z,60.80
2019-02-24T02:56:21.879Z,69.03
2019-02-24T02:58:54.607Z,63.23
2019-02-24T03:01:24.342Z,59.80
2019-02-24T03:03:54.718Z,58.53
2019-02-24T03:06:42.260Z,75.27
2019-02-24T03:09:12.834Z,69.07
2019-02-24T03:11:43.453Z,63.13
2019-02-24T03:14:13.842Z,66.73
2019-02-24T03:16:44.259Z,67.13
2019-02-24T03:19:14.752Z,67.10
2019-02-24T03:21:45.293Z,71.77
2019-02-24T03:24:15.728Z,66.93
2019-02-24T03:26:46.212Z,73.30
2019-02-24T03:29:16.735Z,78.20
2019-02-24T03:31:47.069Z,68.30
2019-02-24T03:34:17.469Z,63.00
2019-02-24T03:36:47.821Z,56.37
2019-02-24T03:39:18.232Z,61.33
2019-02-24T03:41:48.578Z,64.47
2019-02-24T03:44:19.064Z,71.20
2019-02-24T03:46:49.442Z,71.73
2019-02-24T03:49:20.154Z,63.67
2019-02-24T03:51:50.548Z,62.70
2019-02-24T03:54:20.999Z,64.97
2019-02-24T03:56:51.728Z,59.37
2019-02-24T03:59:22.428Z,64.70
2019-02-24T04:01:52.758Z,64.77
2019-02-24T04:04:23.322Z,63.33
2019-02-24T04:06:53.715Z,63.83
2019-02-24T04:09:24.063Z,62.23
2019-02-24T04:11:54.478Z,59.63
2019-02-24T04:14:25.089Z,56.77
2019-02-24T04:16:55.744Z,64.30
2019-02-24T04:19:26.176Z,62.20
2019-02-24T04:21:56.584Z,62.90
2019-02-24T04:24:27.181Z,57.77
2019-02-24T04:26:58.763Z,67.53
2019-02-24T04:29:29.112Z,60.47
2019-02-24T04:31:59.572Z,63.80
2019-02-24T04:34:29.966Z,64.50
2019-02-24T04:37:00.380Z,67.03
2019-02-24T04:39:30.764Z,70.37
2019-02-24T04:42:01.188Z,65.90
2019-02-24T04:44:31.654Z,61.23
2019-02-24T04:47:02.125Z,66.40
2019-02-24T04:49:32.529Z,63.30
2019-02-24T04:52:02.882Z,65.13
2019-02-24T04:54:33.370Z,57.60
2019-02-24T04:57:03.822Z,54.03
2019-02-24T04:59:35.244Z,67.40
2019-02-24T05:02:05.866Z,66.87
2019-02-24T05:04:37.495Z,65.93
2019-02-24T05:07:07.896Z,63.37
2019-02-24T05:09:38.325Z,64.47
2019-02-24T05:12:08.800Z,59.27
2019-02-24T05:14:39.144Z,62.47
2019-02-24T05:17:09.577Z,68.27
2019-02-24T05:19:39.914Z,63.33
2019-02-24T05:22:10.444Z,70.50
2019-02-24T05:24:41.024Z,65.90
2019-02-24T05:27:11.944Z,68.40
2019-02-24T05:29:45.855Z,60.67
2019-02-24T05:32:14.372Z,63.97
2019-02-24T05:34:45.110Z,62.57
2019-02-24T05:37:15.610Z,64.27
2019-02-24T05:39:47.760Z,61.97
2019-02-24T05:42:18.304Z,57.87
2019-02-24T05:44:49.581Z,67.13
2019-02-24T05:47:20.023Z,61.87
2019-02-24T05:49:50.945Z,61.30
2019-02-24T05:52:21.265Z,75.73
2019-02-24T05:54:51.975Z,69.17
2019-02-24T05:57:23.093Z,72.03
2019-02-24T05:59:55.467Z,68.97
2019-02-24T06:02:27.257Z,62.73
2019-02-24T06:04:57.643Z,65.13
2019-02-24T06:07:28.025Z,59.90
2019-02-24T06:09:58.640Z,64.30
2019-02-24T06:12:28.980Z,68.40
2019-02-24T06:14:59.419Z,67.20
2019-02-24T06:17:29.789Z,65.73
2019-02-24T06:20:00.305Z,63.30
2019-02-24T06:22:31.549Z,64.80
2019-02-24T06:25:02.003Z,66.43
2019-02-24T06:27:32.792Z,57.93
2019-02-24T06:30:05.273Z,61.23
2019-02-24T06:32:35.426Z,58.87
2019-02-24T06:35:07.676Z,59.10
2019-02-24T06:37:38.170Z,71.47
2019-02-24T06:40:09.148Z,77.17
2019-02-24T06:42:39.631Z,70.33
2019-02-24T06:45:11.243Z,68.57
2019-02-24T06:47:41.616Z,70.13
2019-02-24T06:50:12.005Z,68.17
2019-02-24T06:52:42.353Z,56.13
2019-02-24T06:55:13.559Z,59.80
2019-02-24T06:57:43.940Z,65.90
2019-02-24T07:00:14.526Z,70.30
2019-02-24T07:02:45.026Z,52.50
2019-02-24T07:05:15.783Z,75.33
2019-02-24T07:07:46.296Z,64.37
2019-02-24T07:10:16.789Z,68.53
2019-02-24T07:12:47.204Z,63.80
2019-02-24T07:15:17.604Z,66.60
2019-02-24T07:17:47.971Z,65.80
2019-02-24T07:20:18.399Z,63.90
2019-02-24T07:22:48.807Z,56.27
2019-02-24T07:25:19.409Z,69.97
2019-02-24T07:27:49.910Z,62.17
2019-02-24T07:30:23.630Z,70.03
2019-02-24T07:32:52.777Z,60.90
2019-02-24T07:35:23.576Z,70.20
2019-02-24T07:37:53.960Z,66.20
2019-02-24T07:40:24.334Z,63.70
2019-02-24T07:42:54.708Z,60.80
2019-02-24T07:45:25.070Z,71.27
2019-02-24T07:47:55.515Z,70.03
2019-02-24T07:50:25.968Z,63.00
2019-02-24T07:52:56.367Z,57.00
2019-02-24T07:55:27.200Z,60.03
2019-02-24T07:57:57.744Z,62.83
2019-02-24T08:00:32.337Z,61.67
2019-02-24T08:03:00.075Z,59.50
2019-02-24T08:05:30.399Z,63.60
2019-02-24T08:08:02.504Z,60.87
2019-02-24T08:10:33.031Z,51.50
2019-02-24T08:13:03.573Z,51.40
2019-02-24T08:15:33.950Z,46.00
2019-02-24T08:18:04.351Z,47.93
2019-02-24T08:20:34.797Z,46.20
2019-02-24T08:23:05.171Z,48.07
2019-02-24T08:25:35.556Z,44.37
2019-02-24T08:28:06.152Z,52.20
2019-02-24T08:30:41.692Z,44.83
2019-02-24T08:33:08.571Z,44.60
2019-02-24T08:35:39.237Z,48.37
2019-02-24T08:38:09.615Z,56.60
2019-02-24T08:40:41.327Z,51.30
2019-02-24T08:43:11.691Z,39.00
2019-02-24T08:45:42.068Z,43.33
2019-02-24T08:48:12.850Z,37.63
2019-02-24T08:50:44.303Z,40.50
2019-02-24T08:53:14.740Z,45.03
2019-02-24T08:55:45.094Z,41.40
2019-02-24T08:58:15.803Z,40.77
2019-02-24T09:00:51.009Z,36.07
2019-02-24T09:03:18.447Z,42.97
2019-02-24T09:05:48.822Z,32.73
2019-02-24T09:08:19.256Z,40.17
2019-02-24T09:10:49.848Z,37.20
2019-02-24T09:13:20.464Z,36.43
2019-02-24T09:15:50.893Z,35.40
2019-02-24T09:18:21.382Z,35.77
2019-02-24T09:20:51.739Z,35.63
2019-02-24T09:23:22.217Z,35.90
2019-02-24T09:25:52.690Z,37.57
2019-02-24T09:28:23.121Z,42.53
2019-02-24T09:31:00.399Z,43.90
2019-02-24T09:33:26.174Z,44.10
2019-02-24T09:35:57.086Z,36.87
2019-02-24T09:38:27.516Z,35.67
2019-02-24T09:40:57.899Z,32.47
2019-02-24T09:43:28.586Z,42.43
2019-02-24T09:45:58.913Z,47.10
2019-02-24T09:48:29.613Z,39.27
2019-02-24T09:51:00.035Z,35.10
2019-02-24T09:53:30.463Z,39.10
2019-02-24T09:56:00.781Z,39.00
2019-02-24T09:58:31.811Z,42.70
2019-02-24T10:01:10.366Z,39.40
2019-02-24T10:03:34.454Z,43.30
2019-02-24T10:06:05.332Z,42.90
2019-02-24T10:08:37.302Z,35.90
2019-02-24T10:11:07.719Z,34.97
2019-02-24T10:13:39.460Z,36.67
2019-02-24T10:16:09.853Z,34.17
2019-02-24T10:18:40.511Z,44.20
2019-02-24T10:21:11.047Z,48.30
2019-02-24T10:23:41.448Z,36.90
2019-02-24T10:26:11.803Z,47.83
2019-02-24T10:28:42.399Z,35.90
2019-02-24T10:31:19.587Z,42.70
2019-02-24T10:33:45.135Z,40.90
2019-02-24T10:36:15.843Z,47.57
2019-02-24T10:38:46.986Z,40.93
2019-02-24T10:41:17.382Z,36.90
2019-02-24T10:43:47.771Z,43.73
2019-02-24T10:46:18.598Z,41.10
2019-02-24T10:48:49.121Z,47.23
2019-02-24T10:51:19.515Z,48.93
2019-02-24T10:53:49.940Z,41.53
2019-02-24T10:56:20.348Z,42.50
2019-02-24T10:58:50.999Z,44.37
2019-02-24T11:01:29.218Z,43.50
2019-02-24T11:03:53.511Z,34.87
2019-02-24T11:06:23.881Z,38.03
2019-02-24T11:08:54.309Z,35.27
2019-02-24T11:11:24.669Z,38.73
2019-02-24T11:13:55.031Z,37.70
2019-02-24T11:16:25.412Z,39.27
2019-02-24T11:18:56.855Z,39.33
2019-02-24T11:21:27.232Z,40.90
2019-02-24T11:23:57.904Z,34.70
2019-02-24T11:26:28.313Z,41.83
2019-02-24T11:28:58.723Z,41.87
2019-02-24T11:31:37.973Z,45.10
2019-02-24T11:34:01.234Z,40.57
2019-02-24T11:36:31.588Z,43.47
2019-02-24T11:39:01.984Z,42.30
2019-02-24T11:41:34.004Z,44.63
2019-02-24T11:44:04.455Z,43.60
2019-02-24T11:46:35.381Z,43.53
2019-02-24T11:49:06.033Z,48.10
2019-02-24T11:51:36.433Z,42.40
2019-02-24T11:54:07.131Z,41.13
2019-02-24T11:56:38.839Z,45.50
2019-02-24T11:59:09.326Z,46.33
2019-02-24T12:01:47.290Z,42.67
2019-02-24T12:04:11.916Z,45.67
2019-02-24T12:06:42.299Z,40.63
2019-02-24T12:09:12.664Z,43.63
2019-02-24T12:11:43.067Z,50.57
2019-02-24T12:14:13.465Z,37.27
2019-02-24T12:16:44.291Z,44.60
2019-02-24T12:19:15.244Z,40.00
2019-02-24T12:21:45.743Z,37.93
2019-02-24T12:24:16.069Z,51.03
2019-02-24T12:26:46.459Z,49.53
2019-02-24T12:29:16.925Z,42.97
2019-02-24T12:31:56.185Z,44.60
2019-02-24T12:34:20.246Z,51.27
2019-02-24T12:36:50.639Z,49.77
2019-02-24T12:39:21.040Z,44.47
2019-02-24T12:41:51.501Z,45.47
2019-02-24T12:44:21.955Z,42.70
2019-02-24T12:46:52.309Z,46.20
2019-02-24T12:49:22.696Z,49.87
2019-02-24T12:51:53.019Z,51.90
2019-02-24T12:54:23.464Z,40.37
2019-02-24T12:56:53.889Z,44.07
2019-02-24T12:59:25.019Z,41.93
2019-02-24T13:02:05.297Z,45.57
2019-02-24T13:04:28.963Z,46.63
2019-02-24T13:07:01.982Z,51.17
2019-02-24T13:09:33.858Z,46.33
2019-02-24T13:12:04.267Z,43.10
2019-02-24T13:14:40.423Z,45.40
2019-02-24T13:17:16.167Z,49.57
2019-02-24T13:19:48.217Z,50.73
2019-02-24T13:22:18.692Z,54.30
2019-02-24T13:24:50.243Z,49.43
2019-02-24T13:27:20.648Z,56.50
2019-02-24T13:29:52.577Z,56.10
2019-02-24T13:32:23.157Z,49.73
2019-02-24T13:34:53.529Z,55.03
2019-02-24T13:37:23.929Z,61.87
2019-02-24T13:39:54.292Z,56.30
2019-02-24T13:42:24.659Z,52.57
2019-02-24T13:44:54.983Z,45.07
2019-02-24T13:47:25.429Z,55.10
2019-02-24T13:49:55.809Z,61.80
2019-02-24T13:52:26.227Z,53.23
2019-02-24T13:54:56.634Z,52.57
2019-02-24T13:57:27.041Z,46.93
2019-02-24T13:59:57.397Z,62.63
2019-02-24T14:02:27.796Z,52.47
2019-02-24T14:04:58.178Z,48.93
2019-02-24T14:07:28.607Z,53.53
2019-02-24T14:09:58.977Z,59.43
2019-02-24T14:12:29.357Z,72.90
2019-02-24T14:14:59.708Z,59.77
2019-02-24T14:17:30.485Z,56.77
2019-02-24T14:20:01.094Z,69.80
2019-02-24T14:22:31.899Z,55.23
2019-02-24T14:25:02.946Z,58.43
2019-02-24T14:27:33.355Z,49.27
2019-02-24T14:30:04.099Z,52.27
2019-02-24T14:32:34.431Z,62.33
2019-02-24T14:35:06.155Z,46.00
2019-02-24T14:37:36.511Z,45.93
2019-02-24T14:40:07.507Z,43.67
2019-02-24T14:42:37.891Z,46.53
2019-02-24T14:45:11.557Z,42.93
2019-02-24T14:47:41.934Z,47.23
2019-02-24T14:50:12.918Z,39.30
2019-02-24T14:52:43.378Z,44.00
2019-02-24T14:55:14.131Z,38.80
2019-02-24T14:57:44.482Z,50.43
2019-02-24T15:00:15.429Z,53.23
2019-02-24T15:02:46.045Z,44.97
2019-02-24T15:05:16.951Z,40.70
2019-02-24T15:07:47.727Z,35.73
2019-02-24T15:10:18.041Z,43.43
2019-02-24T15:12:48.483Z,50.47
2019-02-24T15:15:19.775Z,42.27
2019-02-24T15:17:50.133Z,48.50
2019-02-24T15:20:20.803Z,43.03
2019-02-24T15:22:51.662Z,43.63
2019-02-24T15:25:22.067Z,45.80
2019-02-24T15:27:52.428Z,46.37
2019-02-24T15:30:28.641Z,42.73
2019-02-24T15:32:59.099Z,45.30
2019-02-24T15:35:29.780Z,47.90
2019-02-24T15:38:00.685Z,45.47
2019-02-24T15:40:31.063Z,54.80
2019-02-24T15:43:01.686Z,56.20
2019-02-24T15:45:32.125Z,52.93
2019-02-24T15:48:02.781Z,53.87
2019-02-24T15:50:34.267Z,49.40
2019-02-24T15:53:04.709Z,57.47
2019-02-24T15:55:35.495Z,56.43
2019-02-24T15:58:06.459Z,59.33
2019-02-24T16:00:37.097Z,58.20
2019-02-24T16:03:07.745Z,66.50
2019-02-24T16:05:38.172Z,59.93
2019-02-24T16:08:08.542Z,65.40
2019-02-24T16:10:41.364Z,73.00
2019-02-24T16:13:16.969Z,76.87
2019-02-24T16:15:44.219Z,75.93
2019-02-24T16:18:14.858Z,75.50
2019-02-24T16:20:45.371Z,74.47
2019-02-24T16:23:17.312Z,77.23
2019-02-24T16:25:47.980Z,78.77
2019-02-24T16:28:18.527Z,81.87
2019-02-24T16:30:48.838Z,78.80
2019-02-24T16:33:19.555Z,76.27
2019-02-24T16:35:50.118Z,91.30
2019-02-24T16:38:20.523Z,77.00
2019-02-24T16:40:50.881Z,84.03
2019-02-24T16:43:21.298Z,76.93
2019-02-24T16:45:51.770Z,81.57
2019-02-24T16:48:22.401Z,70.80
2019-02-24T16:50:52.802Z,79.90
2019-02-24T16:53:24.552Z,77.63
2019-02-24T16:55:54.909Z,73.40
2019-02-24T16:58:25.685Z,74.43
2019-02-24T17:00:56.061Z,77.37
2019-02-24T17:03:26.474Z,78.70
2019-02-24T17:05:57.447Z,76.90
2019-02-24T17:08:28.252Z,82.47
2019-02-24T17:11:07.168Z,79.20
2019-02-24T17:13:30.791Z,76.97
2019-02-24T17:16:01.177Z,82.73
2019-02-24T17:18:31.536Z,84.07
2019-02-24T17:21:01.973Z,78.33
2019-02-24T17:23:32.336Z,76.10
2019-02-24T17:26:02.734Z,75.13
2019-02-24T17:28:33.118Z,75.67
2019-02-24T17:31:03.539Z,83.43
2019-02-24T17:33:33.924Z,79.63
2019-02-24T17:36:04.328Z,88.87
2019-02-24T17:38:34.838Z,101.30
2019-02-24T17:41:05.254Z,95.40
2019-02-24T17:43:35.712Z,97.17
2019-02-24T17:46:06.148Z,92.00
2019-02-24T17:48:36.481Z,90.23
2019-02-24T17:51:07.200Z,87.10
2019-02-24T17:53:37.852Z,86.13
2019-02-24T17:56:08.412Z,89.23
2019-02-24T17:58:38.859Z,86.53
2019-02-24T18:01:09.277Z,92.37
2019-02-24T18:03:39.966Z,81.97
2019-02-24T18:06:10.574Z,89.27
2019-02-24T18:08:41.748Z,98.93
2019-02-24T18:11:12.309Z,89.83
2019-02-24T18:13:42.970Z,94.23
2019-02-24T18:16:13.306Z,98.17
2019-02-24T18:18:43.757Z,94.67
2019-02-24T18:21:14.166Z,100.03
2019-02-24T18:23:44.544Z,101.97
2019-02-24T18:26:15.119Z,92.77
2019-02-24T18:28:45.461Z,102.00
2019-02-24T18:31:15.828Z,105.80
2019-02-24T18:33:48.560Z,91.23
2019-02-24T18:36:19.372Z,99.63
2019-02-24T18:38:49.824Z,93.63
2019-02-24T18:41:20.513Z,119.27
2019-02-24T18:43:50.958Z,114.13
2019-02-24T18:46:21.738Z,107.53
2019-02-24T18:48:52.107Z,100.83
2019-02-24T18:51:22.752Z,119.87
2019-02-24T18:53:53.078Z,106.53
2019-02-24T18:56:23.472Z,112.90
2019-02-24T18:58:54.242Z,115.77
2019-02-24T19:01:25.346Z,113.07
2019-02-24T19:03:57.999Z,113.60
2019-02-24T19:06:28.919Z,129.17
2019-02-24T19:08:59.412Z,126.17
2019-02-24T19:11:29.792Z,112.50
2019-02-24T19:14:00.185Z,104.60
2019-02-24T19:16:31.278Z,106.30
2019-02-24T19:19:01.721Z,120.70
2019-02-24T19:21:32.141Z,119.83
2019-02-24T19:24:02.566Z,108.93
2019-02-24T19:26:32.900Z,109.93
2019-02-24T19:29:03.318Z,117.50
2019-02-24T19:31:33.708Z,111.83
2019-02-24T19:34:06.708Z,159.00
2019-02-24T19:36:37.581Z,141.70
2019-02-24T19:39:09.748Z,111.47
2019-02-24T19:41:40.252Z,116.57
2019-02-24T19:44:10.658Z,116.23
2019-02-24T19:46:42.298Z,130.90
2019-02-24T19:49:12.854Z,119.23
2019-02-24T19:51:43.250Z,107.63
2019-02-24T19:54:13.675Z,114.40
2019-02-24T19:56:44.139Z,105.63
2019-02-24T19:59:14.555Z,99.93
2019-02-24T20:01:45.082Z,108.67
2019-02-24T20:04:16.416Z,106.73
2019-02-24T20:06:47.118Z,103.90
2019-02-24T20:09:17.876Z,112.90
2019-02-24T20:11:48.294Z,92.03
2019-02-24T20:14:18.834Z,98.37
2019-02-24T20:16:49.265Z,110.93
2019-02-24T20:19:19.716Z,98.57
2019-02-24T20:21:50.103Z,108.07
2019-02-24T20:24:20.636Z,115.03
2019-02-24T20:26:51.071Z,105.10
2019-02-24T20:29:21.472Z,117.93
2019-02-24T20:31:53.144Z,111.33
2019-02-24T20:34:25.812Z,111.00
2019-02-24T20:36:56.968Z,108.50
2019-02-24T20:39:27.353Z,111.27
2019-02-24T20:41:57.802Z,113.87
2019-02-24T20:44:28.210Z,131.90
2019-02-24T20:46:58.719Z,109.63
2019-02-24T20:49:29.490Z,114.20
2019-02-24T20:51:59.946Z,107.20
2019-02-24T20:54:30.302Z,102.53
2019-02-24T20:57:01.848Z,104.73
2019-02-24T20:59:32.410Z,106.53
2019-02-24T21:02:02.906Z,97.73
2019-02-24T21:04:33.271Z,105.67
2019-02-24T21:07:03.937Z,90.60
2019-02-24T21:09:34.355Z,112.10
2019-02-24T21:12:04.862Z,100.70
2019-02-24T21:14:35.294Z,90.80
2019-02-24T21:17:05.710Z,92.60
2019-02-24T21:19:36.419Z,98.60
2019-02-24T21:22:07.205Z,103.27
2019-02-24T21:24:37.720Z,93.77
2019-02-24T21:27:08.400Z,81.87
2019-02-24T21:29:39.104Z,90.63
2019-02-24T21:32:09.844Z,93.30
2019-02-24T21:34:40.235Z,94.03
2019-02-24T21:37:11.372Z,94.23
2019-02-24T21:39:41.900Z,91.27
2019-02-24T21:42:12.411Z,89.90
2019-02-24T21:44:42.742Z,87.40
2019-02-24T21:47:13.390Z,77.87
2019-02-24T21:49:44.272Z,93.83
2019-02-24T21:52:14.632Z,95.77
2019-02-24T21:54:46.766Z,88.27
2019-02-24T21:57:17.249Z,83.60
2019-02-24T21:59:47.730Z,94.60
2019-02-24T22:02:18.234Z,80.73
2019-02-24T22:04:48.655Z,88.47
2019-02-24T22:07:20.261Z,89.97
2019-02-24T22:09:50.908Z,90.33
2019-02-24T22:12:21.659Z,95.33
2019-02-24T22:14:52.096Z,93.73
2019-02-24T22:17:22.537Z,85.57
2019-02-24T22:19:53.215Z,102.43
2019-02-24T22:22:23.605Z,96.47
2019-02-24T22:24:54.335Z,101.23
2019-02-24T22:27:24.835Z,86.17
2019-02-24T22:29:55.423Z,93.23
2019-02-24T22:32:25.860Z,97.30
2019-02-24T22:34:56.495Z,95.47
2019-02-24T22:37:27.309Z,100.50
2019-02-24T22:39:57.750Z,86.43
2019-02-24T22:42:28.115Z,85.83
2019-02-24T22:44:58.598Z,100.27
2019-02-24T22:47:29.257Z,75.77
2019-02-24T22:50:00.296Z,88.30
2019-02-24T22:52:30.645Z,101.10
2019-02-24T22:55:01.057Z,92.13
2019-02-24T22:57:31.442Z,80.97
2019-02-24T23:00:02.908Z,91.80
2019-02-24T23:02:35.808Z,87.33
2019-02-24T23:05:07.521Z,91.60
2019-02-24T23:07:39.518Z,97.97
2019-02-24T23:10:10.624Z,84.67
2019-02-24T23:12:41.439Z,87.67
2019-02-24T23:15:13.557Z,83.27
2019-02-24T23:17:45.598Z,92.73
2019-02-24T23:20:15.997Z,94.50
2019-02-24T23:22:46.376Z,94.13
2019-02-24T23:25:16.842Z,90.13
2019-02-24T23:27:47.233Z,81.37
2019-02-24T23:30:17.738Z,97.77
2019-02-24T23:32:48.207Z,86.47
2019-02-24T23:35:18.627Z,94.00
2019-02-24T23:37:49.117Z,87.53
2019-02-24T23:40:19.537Z,85.63
2019-02-24T23:42:50.323Z,93.67
2019-02-24T23:45:21.425Z,97.23
2019-02-24T23:47:51.707Z,89.23
2019-02-24T23:50:22.281Z,92.20
2019-02-24T23:52:52.645Z,83.00
2019-02-24T23:55:23.067Z,84.03
2019-02-24T23:57:53.519Z,88.77
